Time;durP1;ratioP1;P1;durP2;ratioP2;P2;SDS_P1;SDS_P2;PMS_P1;PMS_P2;Temp;Humidity;BMP_temperature;BMP_pressure;BME280_temperature;BME280_humidity;BME280_pressure;Samples;Min_cycle;Max_cycle;Signal;HPM_P1;HPM_P2
2021/01/15 00:01:42;;;;;;;3.17;1.55;;;;;;;-3.33;58.74;93360.19;5061717;28;20024;-74
2021/01/15 00:04:08;;;;;;;2.60;1.40;;;;;;;-3.39;59.13;93371.59;5055255;28;20029;-75
2021/01/15 00:06:33;;;;;;;3.75;1.75;;;;;;;-3.39;59.72;93363.75;5047617;28;20112;-76
2021/01/15 00:08:59;;;;;;;2.10;1.20;;;;;;;-3.43;59.49;93381.69;5047766;28;20036;-75
2021/01/15 00:11:25;;;;;;;2.95;1.50;;;;;;;-3.37;59.95;93400.00;5057923;28;20020;-74
2021/01/15 00:13:53;;;;;;;2.22;1.33;;;;;;;-3.47;60.19;93371.97;5067330;28;20044;-74
2021/01/15 00:16:22;;;;;;;4.03;1.92;;;;;;;-3.35;60.88;93397.97;5068773;28;20032;-75
2021/01/15 00:18:48;;;;;;;4.43;2.00;;;;;;;-3.33;60.22;93383.66;5067421;28;20029;-75
2021/01/15 00:21:28;;;;;;;5.70;2.00;;;;;;;-3.40;60.04;93392.66;5069504;28;20097;-76
2021/01/15 00:23:55;;;;;;;3.55;1.67;;;;;;;-3.37;60.43;93379.16;5072410;28;20036;-76
2021/01/15 00:26:23;;;;;;;4.50;2.15;;;;;;;-3.41;60.05;93383.28;5058634;28;20450;-76
2021/01/15 00:28:49;;;;;;;4.97;1.80;;;;;;;-3.44;60.71;93380.13;5056097;28;20094;-76
2021/01/15 00:31:15;;;;;;;4.75;1.75;;;;;;;-3.49;61.02;93390.44;5056592;28;20025;-76
2021/01/15 00:33:40;;;;;;;2.95;1.38;;;;;;;-3.46;60.80;93390.00;5056484;28;20051;-76
2021/01/15 00:36:07;;;;;;;2.83;1.55;;;;;;;-3.54;60.30;93381.75;5050464;28;20053;-76
2021/01/15 00:38:33;;;;;;;2.33;1.33;;;;;;;-3.50;60.66;93375.03;5055315;28;20035;-76
2021/01/15 00:41:07;;;;;;;4.63;1.85;;;;;;;-3.48;60.62;93381.63;5060378;28;20492;-76
2021/01/15 00:43:33;;;;;;;3.13;1.90;;;;;;;-3.48;60.38;93391.22;5060353;28;20032;-76
2021/01/15 00:45:59;;;;;;;3.38;1.42;;;;;;;-3.48;60.75;93393.84;5059052;28;20056;-76
2021/01/15 00:48:24;;;;;;;3.78;1.98;;;;;;;-3.51;60.90;93400.31;5060911;28;20063;-76
2021/01/15 00:50:50;;;;;;;4.38;2.25;;;;;;;-3.54;60.92;93394.78;5066356;28;20111;-76
2021/01/15 00:53:15;;;;;;;5.30;2.03;;;;;;;-3.62;60.67;93393.38;5059717;28;20021;-77
2021/01/15 00:55:41;;;;;;;4.57;2.25;;;;;;;-3.59;61.00;93410.34;5055807;28;20028;-76
2021/01/15 00:58:06;;;;;;;3.35;1.85;;;;;;;-3.62;60.70;93398.59;5057079;28;20055;-76
2021/01/15 01:00:32;;;;;;;2.67;1.45;;;;;;;-3.62;60.87;93416.84;5069891;28;20035;-77
2021/01/15 01:02:57;;;;;;;2.78;1.40;;;;;;;-3.62;60.79;93414.22;5057159;28;20090;-76
2021/01/15 01:05:24;;;;;;;3.72;1.77;;;;;;;-3.69;61.32;93413.56;5051541;28;20113;-76
2021/01/15 01:07:49;;;;;;;3.33;1.77;;;;;;;-3.65;61.29;93409.47;5054115;28;20051;-76
2021/01/15 01:10:15;;;;;;;3.38;2.00;;;;;;;-3.63;60.92;93410.03;5050195;28;20025;-77
2021/01/15 01:12:43;;;;;;;3.60;2.00;;;;;;;-3.55;60.77;93414.84;5049894;28;20060;-77
2021/01/15 01:15:09;;;;;;;3.92;2.15;;;;;;;-3.46;60.81;93418.66;5055692;28;20476;-77
2021/01/15 01:17:35;;;;;;;4.05;1.48;;;;;;;-3.51;59.29;93423.78;5062051;28;20039;-77
2021/01/15 01:20:00;;;;;;;5.00;1.90;;;;;;;-3.48;59.03;93415.50;5063736;28;20037;-77
2021/01/15 01:22:26;;;;;;;4.63;1.67;;;;;;;-3.46;58.62;93417.84;5069641;28;20092;-77
2021/01/15 01:24:51;;;;;;;4.07;2.00;;;;;;;-3.43;58.88;93423.38;5064728;28;20029;-76
2021/01/15 01:27:16;;;;;;;4.20;1.48;;;;;;;-3.39;58.44;93412.50;5066144;28;20176;-76
2021/01/15 01:29:42;;;;;;;2.97;1.77;;;;;;;-3.33;58.39;93416.75;5062882;28;20399;-76
2021/01/15 01:32:07;;;;;;;5.55;1.88;;;;;;;-3.38;58.74;93399.19;5058513;28;20530;-82
2021/01/15 01:34:33;;;;;;;3.63;1.67;;;;;;;-3.33;59.08;93416.75;5073033;28;20031;-81
2021/01/15 01:36:58;;;;;;;3.97;1.75;;;;;;;-3.34;58.57;93415.16;5065828;28;20032;-80
2021/01/15 01:39:23;;;;;;;4.00;1.85;;;;;;;-3.31;58.36;93412.88;5063715;28;20029;-81
2021/01/15 01:41:49;;;;;;;3.22;1.70;;;;;;;-3.30;58.20;93414.44;5059904;28;20044;-82
2021/01/15 01:44:14;;;;;;;3.63;1.85;;;;;;;-3.24;58.15;93430.94;5064074;28;20037;-80
2021/01/15 01:46:40;;;;;;;4.53;1.77;;;;;;;-3.25;57.96;93430.16;5063315;28;20034;-81
2021/01/15 01:49:06;;;;;;;3.95;1.95;;;;;;;-3.23;57.79;93424.72;5061955;28;20400;-80
2021/01/15 01:51:32;;;;;;;4.65;1.98;;;;;;;-3.30;58.71;93437.91;5067494;28;20082;-82
2021/01/15 01:53:58;;;;;;;5.47;1.83;;;;;;;-3.32;58.84;93437.34;5061424;28;20032;-78
2021/01/15 01:56:25;;;;;;;3.85;1.83;;;;;;;-3.25;58.84;93439.81;5060438;28;20410;-78
2021/01/15 01:58:51;;;;;;;5.75;2.10;;;;;;;-3.34;58.96;93446.44;5051387;28;20119;-78
2021/01/15 02:01:17;;;;;;;4.28;2.33;;;;;;;-3.36;59.23;93431.03;5051238;28;20120;-77
2021/01/15 02:03:43;;;;;;;5.05;2.28;;;;;;;-3.37;59.81;93426.06;5070490;28;20056;-78
2021/01/15 02:06:13;;;;;;;4.07;1.95;;;;;;;-3.42;60.08;93434.59;5063480;28;20064;-78
2021/01/15 02:08:38;;;;;;;6.40;2.17;;;;;;;-3.38;59.72;93429.69;5051873;28;20033;-77
2021/01/15 02:11:41;;;;;;;6.95;2.70;;;;;;;-3.36;60.08;93419.81;5072846;28;20124;-77
2021/01/15 02:14:29;;;;;;;3.42;1.73;;;;;;;-3.37;59.84;93408.63;5055517;28;20041;-77
2021/01/15 02:16:56;;;;;;;5.25;2.28;;;;;;;-3.45;60.08;93430.63;5067240;28;20094;-77
2021/01/15 02:19:47;;;;;;;4.72;2.15;;;;;;;-3.50;61.10;93432.38;5058071;28;20131;-77
2021/01/15 02:22:44;;;;;;;4.97;2.45;;;;;;;-3.56;61.71;93418.50;5057387;28;20392;-77
2021/01/15 02:25:29;;;;;;;6.15;2.47;;;;;;;-3.58;61.61;93433.56;5058862;28;20028;-77
2021/01/15 02:28:13;;;;;;;5.88;1.92;;;;;;;-3.57;61.65;93437.75;5024313;28;20104;-77
2021/01/15 02:30:42;;;;;;;5.10;2.28;;;;;;;-3.57;61.84;93448.16;5061907;28;20040;-77
2021/01/15 02:33:35;;;;;;;3.55;2.00;;;;;;;-3.61;62.18;93447.06;5066563;28;20028;-77
2021/01/15 02:36:14;;;;;;;5.10;2.42;;;;;;;-3.52;62.09;93450.88;5065286;28;20032;-77
2021/01/15 02:38:47;;;;;;;3.28;2.15;;;;;;;-3.59;61.55;93446.81;5066402;28;20024;-77
2021/01/15 02:41:26;;;;;;;4.05;2.22;;;;;;;-3.58;61.31;93445.78;5055387;28;20448;-77
2021/01/15 02:44:05;;;;;;;4.65;2.10;;;;;;;-3.56;61.24;93457.56;5064235;28;20025;-78
2021/01/15 02:46:45;;;;;;;3.05;1.70;;;;;;;-3.63;60.79;93454.31;5043746;28;20062;-78
2021/01/15 02:49:11;;;;;;;4.60;2.53;;;;;;;-3.66;60.76;93463.41;5067010;28;20029;-79
2021/01/15 02:51:42;;;;;;;4.68;2.40;;;;;;;-3.62;60.84;93448.09;5056555;28;20456;-78
2021/01/15 02:54:08;;;;;;;7.35;2.72;;;;;;;-3.58;60.67;93451.81;5057967;28;20024;-77
2021/01/15 02:56:35;;;;;;;4.75;1.98;;;;;;;-3.57;60.05;93458.59;5062491;28;20433;-78
2021/01/15 02:59:01;;;;;;;5.32;2.22;;;;;;;-3.52;60.32;93460.47;5054648;28;20422;-78
2021/01/15 03:01:31;;;;;;;6.15;2.38;;;;;;;-3.53;60.13;93449.28;5066567;28;20077;-78
2021/01/15 03:04:25;;;;;;;4.20;2.35;;;;;;;-3.58;60.39;93462.22;5048008;28;20029;-78
2021/01/15 03:06:54;;;;;;;6.32;2.85;;;;;;;-3.64;60.74;93466.56;5066913;28;20111;-79
2021/01/15 03:09:19;;;;;;;3.75;2.10;;;;;;;-3.57;60.78;93469.00;5051588;28;20104;-79
2021/01/15 03:11:46;;;;;;;4.85;2.40;;;;;;;-3.52;60.97;93471.72;5056227;28;20112;-79
2021/01/15 03:14:16;;;;;;;3.58;2.00;;;;;;;-3.49;60.90;93479.03;5047917;28;20511;-79
2021/01/15 03:16:42;;;;;;;4.07;2.10;;;;;;;-3.44;60.69;93475.72;5055264;28;20045;-77
2021/01/15 03:19:08;;;;;;;5.18;2.65;;;;;;;-3.44;60.59;93475.72;5060412;28;20040;-78
2021/01/15 03:21:37;;;;;;;3.83;2.42;;;;;;;-3.45;61.08;93479.38;5048074;28;20071;-77
2021/01/15 03:24:04;;;;;;;3.92;2.65;;;;;;;-3.44;60.55;93471.31;5060278;28;20097;-77
2021/01/15 03:26:30;;;;;;;5.63;2.58;;;;;;;-3.41;60.48;93477.09;5062198;28;20031;-78
2021/01/15 03:28:55;;;;;;;5.40;2.35;;;;;;;-3.36;60.18;93470.13;5067935;28;20020;-78
2021/01/15 03:31:21;;;;;;;5.90;2.45;;;;;;;-3.35;60.86;93476.16;5067922;28;20031;-78
2021/01/15 03:33:46;;;;;;;4.63;2.03;;;;;;;-3.35;60.99;93468.31;5065968;28;20465;-78
2021/01/15 03:36:12;;;;;;;4.47;2.45;;;;;;;-3.38;61.49;93471.38;5048070;28;20119;-78
2021/01/15 03:38:37;;;;;;;6.03;2.97;;;;;;;-3.40;61.40;93483.88;5059130;28;20020;-78
2021/01/15 03:41:03;;;;;;;4.57;2.15;;;;;;;-3.41;61.67;93477.88;5051945;28;20033;-78
2021/01/15 03:43:28;;;;;;;4.22;2.53;;;;;;;-3.36;61.77;93479.75;5060081;28;20029;-78
2021/01/15 03:45:55;;;;;;;5.28;3.03;;;;;;;-3.43;61.68;93475.50;5056875;28;20030;-79
2021/01/15 03:48:21;;;;;;;5.97;2.95;;;;;;;-3.45;61.58;93474.94;5054795;28;20059;-80
2021/01/15 03:50:47;;;;;;;5.38;2.38;;;;;;;-3.45;61.69;93487.97;5063017;28;20017;-79
2021/01/15 03:53:16;;;;;;;5.80;3.20;;;;;;;-3.42;62.20;93473.66;5056811;28;20025;-81
2021/01/15 03:55:42;;;;;;;6.07;2.17;;;;;;;-3.41;61.59;93488.28;5058878;28;20017;-79
2021/01/15 03:58:08;;;;;;;4.18;2.17;;;;;;;-3.46;61.79;93485.59;5063387;28;20029;-79
2021/01/15 04:00:33;;;;;;;4.22;2.22;;;;;;;-3.37;61.97;93478.19;5060789;28;20028;-80
2021/01/15 04:02:59;;;;;;;6.20;2.35;;;;;;;-3.38;61.83;93477.38;5067625;28;20135;-80
2021/01/15 04:05:24;;;;;;;4.82;2.70;;;;;;;-3.34;61.40;93486.31;5068418;28;20024;-80
2021/01/15 04:07:49;;;;;;;4.60;2.35;;;;;;;-3.38;61.79;93484.41;5070867;28;20020;-78
2021/01/15 04:10:17;;;;;;;5.53;3.05;;;;;;;-3.39;61.75;93485.47;5064700;28;20174;-79
2021/01/15 04:12:44;;;;;;;4.13;2.38;;;;;;;-3.33;62.01;93492.34;5051349;28;20045;-79
2021/01/15 04:15:11;;;;;;;4.97;2.53;;;;;;;-3.20;61.91;93502.44;5069515;28;20086;-76
2021/01/15 04:17:37;;;;;;;3.63;1.92;;;;;;;-3.24;61.25;93501.34;5063015;28;20380;-77
2021/01/15 04:20:04;;;;;;;6.90;2.45;;;;;;;-3.19;61.11;93505.84;5063250;28;20044;-76
2021/01/15 04:22:55;;;;;;;5.70;2.85;;;;;;;-3.23;61.70;93505.53;5062648;28;20025;-76
2021/01/15 04:25:20;;;;;;;4.75;2.80;;;;;;;-3.23;61.11;93515.97;5061763;28;20021;-77
2021/01/15 04:27:46;;;;;;;4.28;2.10;;;;;;;-3.17;60.77;93501.19;5055959;28;20526;-77
2021/01/15 04:30:13;;;;;;;5.63;2.40;;;;;;;-3.21;61.26;93513.91;5061711;28;20043;-77
2021/01/15 04:32:46;;;;;;;4.18;2.58;;;;;;;-3.17;60.70;93504.59;5066230;28;20027;-77
2021/01/15 04:35:13;;;;;;;4.90;2.47;;;;;;;-3.27;61.05;93512.25;5056584;28;20032;-77
2021/01/15 04:37:39;;;;;;;5.70;2.92;;;;;;;-3.18;61.15;93510.03;5062675;28;20029;-76
2021/01/15 04:40:05;;;;;;;3.97;2.47;;;;;;;-3.27;60.98;93507.03;5055927;28;20381;-76
2021/01/15 04:42:32;;;;;;;3.40;2.10;;;;;;;-3.26;61.58;93517.22;5067256;28;20060;-76
2021/01/15 04:44:58;;;;;;;4.00;2.28;;;;;;;-3.24;61.45;93509.97;5066345;28;20035;-76
2021/01/15 04:47:25;;;;;;;5.38;2.40;;;;;;;-3.29;61.57;93507.25;5071230;28;20462;-76
2021/01/15 04:49:50;;;;;;;4.88;2.22;;;;;;;-3.23;61.70;93514.13;5064052;28;20500;-76
2021/01/15 04:52:17;;;;;;;4.53;2.50;;;;;;;-3.21;61.28;93511.31;5065912;28;20027;-76
2021/01/15 04:54:47;;;;;;;7.65;3.03;;;;;;;-3.27;61.71;93514.84;5055702;28;20021;-76
2021/01/15 04:57:13;;;;;;;5.75;2.53;;;;;;;-3.32;61.97;93533.78;5058398;28;20499;-77
2021/01/15 04:59:46;;;;;;;5.93;2.90;;;;;;;-3.33;61.88;93536.63;5061722;28;20024;-77
2021/01/15 05:02:17;;;;;;;4.95;2.38;;;;;;;-3.36;62.40;93529.28;5058016;28;20076;-77
2021/01/15 05:04:43;;;;;;;4.63;2.83;;;;;;;-3.33;62.09;93536.63;5058609;28;20032;-77
2021/01/15 05:07:11;;;;;;;5.55;3.05;;;;;;;-3.35;62.10;93539.47;5062737;28;20028;-77
2021/01/15 05:09:47;;;;;;;5.18;2.70;;;;;;;-3.36;61.67;93532.66;5066226;28;20021;-77
2021/01/15 05:12:15;;;;;;;6.00;2.55;;;;;;;-3.31;61.94;93537.19;5069964;28;20039;-77
2021/01/15 05:14:48;;;;;;;5.63;2.63;;;;;;;-3.47;61.83;93541.34;5063502;28;20044;-77
2021/01/15 05:17:15;;;;;;;7.60;2.63;;;;;;;-3.44;62.19;93535.66;5067549;28;20024;-77
2021/01/15 05:19:42;;;;;;;7.20;2.83;;;;;;;-3.37;61.81;93541.53;5066803;28;20507;-77
2021/01/15 05:22:09;;;;;;;10.20;2.90;;;;;;;-3.35;61.97;93555.09;5064728;28;20029;-77
2021/01/15 05:24:35;;;;;;;7.20;3.80;;;;;;;-3.31;62.31;93551.00;5069698;28;20021;-77
2021/01/15 05:27:38;;;;;;;5.68;2.60;;;;;;;-3.27;62.24;93546.91;5069786;28;20060;-77
2021/01/15 05:30:13;;;;;;;6.45;3.35;;;;;;;-3.24;61.73;93545.66;5060022;28;20100;-76
2021/01/15 05:32:39;;;;;;;6.30;2.80;;;;;;;-3.24;62.17;93545.66;5055024;28;20114;-76
2021/01/15 05:35:05;;;;;;;7.25;3.08;;;;;;;-3.18;62.11;93570.78;5062075;28;20381;-78
2021/01/15 05:37:31;;;;;;;4.30;2.42;;;;;;;-3.20;61.67;93566.81;5063375;28;20063;-78
2021/01/15 05:39:59;;;;;;;5.60;2.60;;;;;;;-3.16;61.63;93563.50;5066268;28;20032;-76
2021/01/15 05:42:24;;;;;;;4.80;2.75;;;;;;;-3.16;61.55;93563.50;5070481;28;20107;-78
2021/01/15 05:44:50;;;;;;;7.15;3.50;;;;;;;-3.20;61.14;93567.59;5067595;28;20540;-77
2021/01/15 05:47:15;;;;;;;3.75;2.10;;;;;;;-3.15;61.19;93570.31;5062761;28;20025;-79
2021/01/15 05:49:54;;;;;;;3.30;2.13;;;;;;;-3.20;61.48;93554.56;5074562;28;20508;-78
2021/01/15 05:52:20;;;;;;;5.55;2.33;;;;;;;-3.18;60.98;93562.94;5061820;28;20017;-78
2021/01/15 05:54:47;;;;;;;3.50;2.53;;;;;;;-3.18;60.53;93572.59;5069147;28;20027;-79
2021/01/15 05:57:25;;;;;;;4.75;1.88;;;;;;;-3.13;60.70;93581.31;5062879;28;20025;-79
2021/01/15 05:59:52;;;;;;;4.05;2.55;;;;;;;-3.17;60.69;93582.78;5066599;28;20429;-79
2021/01/15 06:02:17;;;;;;;5.95;2.58;;;;;;;-3.12;60.86;93595.13;5069143;28;20057;-79
2021/01/15 06:04:43;;;;;;;9.73;2.88;;;;;;;-3.13;60.50;93604.75;5070293;28;20048;-79
2021/01/15 06:07:09;;;;;;;4.88;2.53;;;;;;;-3.11;60.23;93594.91;5077915;28;20028;-78
2021/01/15 06:09:36;;;;;;;6.22;2.67;;;;;;;-3.03;59.67;93599.72;5067243;28;20031;-78
2021/01/15 06:12:12;;;;;;;6.03;2.15;;;;;;;-3.03;59.96;93598.94;5072494;28;20057;-80
2021/01/15 06:14:48;;;;;;;3.83;2.30;;;;;;;-3.06;59.85;93608.00;5065850;28;20037;-79
2021/01/15 06:17:17;;;;;;;6.20;2.30;;;;;;;-3.06;59.83;93608.00;5060607;28;20020;-78
2021/01/15 06:19:49;;;;;;;5.82;2.35;;;;;;;-3.13;59.92;93604.75;5060811;28;20033;-78
2021/01/15 06:22:44;;;;;;;4.63;2.50;;;;;;;-3.16;60.19;93618.25;5051609;28;20033;-78
2021/01/15 06:25:54;;;;;;;4.95;2.30;;;;;;;-3.07;60.65;93616.88;5044645;28;20155;-79
2021/01/15 06:28:27;;;;;;;5.50;2.60;;;;;;;-3.10;60.86;93613.94;5063908;28;20024;-79
2021/01/15 06:31:00;;;;;;;4.82;2.20;;;;;;;-3.09;60.92;93626.75;5048958;28;20112;-79
2021/01/15 06:33:26;;;;;;;4.50;2.22;;;;;;;-3.10;60.91;93625.16;5067903;28;20048;-79
2021/01/15 06:35:51;;;;;;;5.75;2.78;;;;;;;-3.06;60.55;93628.88;5052385;28;20027;-79
2021/01/15 06:38:19;;;;;;;5.05;2.67;;;;;;;-2.97;60.26;93634.50;5075829;28;20093;-78
2021/01/15 06:40:47;;;;;;;6.57;3.20;;;;;;;-2.92;60.67;93644.22;5079852;28;20009;-79
2021/01/15 06:43:12;;;;;;;5.00;2.67;;;;;;;-2.86;60.22;93653.72;5084315;28;20048;-78
2021/01/15 06:45:46;;;;;;;4.35;2.53;;;;;;;-2.93;60.34;93661.72;5064415;28;20423;-81
2021/01/15 06:48:16;;;;;;;7.07;3.03;;;;;;;-2.95;59.99;93657.72;5068494;28;20024;-82
2021/01/15 06:50:44;;;;;;;5.40;2.53;;;;;;;-2.99;59.99;93672.25;5054846;28;20472;-81
2021/01/15 06:53:19;;;;;;;4.38;1.92;;;;;;;-2.96;60.12;93659.56;5066379;28;20016;-81
2021/01/15 06:55:50;;;;;;;4.85;2.85;;;;;;;-2.87;60.29;93675.59;5067125;28;20035;-82
2021/01/15 06:58:26;;;;;;;8.13;3.35;;;;;;;-2.83;59.68;93666.28;5051259;28;20116;-84
2021/01/15 07:01:18;;;;;;;5.82;3.08;;;;;;;-2.73;59.72;93676.13;5059577;28;20053;-80
2021/01/15 07:04:22;;;;;;;6.30;3.00;;;;;;;-2.78;59.41;93682.03;5068825;28;20200;-78
2021/01/15 07:07:14;;;;;;;5.43;2.65;;;;;;;-2.74;59.66;93684.97;5073460;28;20008;-78
2021/01/15 07:09:44;;;;;;;5.80;2.95;;;;;;;-2.92;59.96;93693.78;5061928;28;20103;-80
2021/01/15 07:12:12;;;;;;;5.47;2.97;;;;;;;-2.85;59.85;93699.63;5074949;28;20024;-77
2021/01/15 07:14:54;;;;;;;4.90;2.75;;;;;;;-2.74;59.67;93696.19;5067132;28;20052;-76
2021/01/15 07:17:30;;;;;;;;;;;;;;;-2.75;59.62;93699.03;5064662;28;20016;-78
2021/01/15 07:20:02;;;;;;;6.38;3.03;;;;;;;-2.85;59.85;93700.44;5053294;28;19912;-78
2021/01/15 07:22:35;;;;;;;6.28;3.42;;;;;;;-2.77;59.69;93712.31;5062828;28;20110;-78
2021/01/15 07:25:04;;;;;;;8.30;2.80;;;;;;;-2.84;59.41;93714.28;5060351;28;20039;-81
2021/01/15 07:27:29;;;;;;;5.85;2.65;;;;;;;-2.81;59.80;93719.00;5063208;28;20112;-80
2021/01/15 07:29:55;;;;;;;3.45;2.30;;;;;;;-2.71;59.96;93721.03;5047989;28;20151;-79
2021/01/15 07:32:27;;;;;;;3.60;2.40;;;;;;;-2.72;59.49;93725.47;5057421;28;20045;-79
2021/01/15 07:34:58;;;;;;;6.20;2.85;;;;;;;-2.68;59.84;93708.31;5061655;28;20111;-80
2021/01/15 07:37:28;;;;;;;5.45;2.58;;;;;;;-2.65;59.09;93713.03;5072307;28;20032;-78
2021/01/15 07:40:18;;;;;;;5.63;2.85;;;;;;;-2.66;59.77;93740.19;5060497;28;20041;-80
2021/01/15 07:42:45;;;;;;;6.63;2.90;;;;;;;-2.51;60.78;93728.41;5047404;28;20468;-79
2021/01/15 07:45:23;;;;;;;6.63;2.45;;;;;;;-2.44;58.78;93732.47;5053348;28;20089;-78
2021/01/15 07:48:06;;;;;;;6.07;3.03;;;;;;;-2.42;58.92;93735.63;5057375;28;20043;-78
2021/01/15 07:50:37;;;;;;;4.53;2.58;;;;;;;-2.44;58.20;93729.06;5062273;28;20036;-78
2021/01/15 07:53:08;;;;;;;3.97;2.30;;;;;;;-2.42;58.11;93742.69;5060807;28;20021;-78
2021/01/15 07:55:45;;;;;;;7.07;3.53;;;;;;;-2.44;58.31;93735.09;5064124;28;20093;-77
2021/01/15 07:58:11;;;;;;;4.75;2.47;;;;;;;-2.38;58.82;93725.53;5071385;28;20063;-82
2021/01/15 08:00:37;;;;;;;3.80;2.45;;;;;;;-2.31;58.04;93735.81;5065455;28;20056;-82
2021/01/15 08:03:03;;;;;;;5.43;3.10;;;;;;;-2.38;58.05;93746.41;5068238;28;20372;-76
2021/01/15 08:05:28;;;;;;;5.82;3.03;;;;;;;-2.31;58.78;93752.25;5064783;28;20036;-70
2021/01/15 08:08:11;;;;;;;7.63;3.55;;;;;;;-2.25;58.50;93745.31;5051623;28;20029;-70
2021/01/15 08:10:45;;;;;;;7.28;3.30;;;;;;;-2.33;59.16;93743.88;5058224;28;20031;-71
2021/01/15 08:13:29;;;;;;;5.95;3.15;;;;;;;-2.30;58.49;93746.03;5066042;28;20190;-72
2021/01/15 08:15:55;;;;;;;5.78;2.80;;;;;;;-2.26;58.27;93744.53;5072887;28;20120;-71
2021/01/15 08:18:22;;;;;;;7.93;2.83;;;;;;;-2.28;58.38;93743.97;5066786;28;20119;-70
2021/01/15 08:20:50;;;;;;;5.55;2.92;;;;;;;-2.25;58.43;93753.16;5052767;28;20025;-71
2021/01/15 08:23:23;;;;;;;7.20;3.58;;;;;;;-2.30;57.78;93740.81;5063721;28;20033;-70
2021/01/15 08:26:01;;;;;;;6.18;3.05;;;;;;;-2.23;58.65;93738.81;5071662;28;20031;-70
2021/01/15 08:28:27;;;;;;;13.77;3.58;;;;;;;-2.08;58.47;93745.31;5052437;28;20075;-70
2021/01/15 08:31:00;;;;;;;14.05;4.15;;;;;;;-1.97;56.80;93754.09;5053843;28;20056;-69
2021/01/15 08:33:26;;;;;;;6.45;3.53;;;;;;;-1.96;56.64;93764.31;5071273;28;20017;-70
2021/01/15 08:35:57;;;;;;;6.35;3.00;;;;;;;-1.89;56.71;93757.13;5072433;28;20025;-68
2021/01/15 08:38:29;;;;;;;5.80;3.00;;;;;;;-2.04;57.36;93760.25;5054454;28;20043;-68
2021/01/15 08:40:56;;;;;;;9.73;3.92;;;;;;;-1.97;56.73;93760.13;5063287;28;20435;-68
2021/01/15 08:43:23;;;;;;;14.07;3.83;;;;;;;-1.92;57.25;93765.41;5059381;28;20410;-68
2021/01/15 08:45:49;;;;;;;6.82;3.55;;;;;;;-1.95;56.75;93768.53;5067438;28;20037;-67
2021/01/15 08:48:15;;;;;;;6.85;3.10;;;;;;;-2.06;57.12;93762.31;5062410;28;20036;-68
2021/01/15 08:50:40;;;;;;;5.28;2.90;;;;;;;-2.09;57.12;93765.41;5069949;28;20035;-68
2021/01/15 08:53:10;;;;;;;7.85;3.97;;;;;;;-2.09;57.66;93759.41;5059152;28;20020;-68
2021/01/15 08:55:39;;;;;;;6.40;3.47;;;;;;;-2.08;56.67;93768.81;5060104;28;20555;-68
2021/01/15 08:58:08;;;;;;;4.90;3.30;;;;;;;-2.20;56.72;93776.72;5066912;28;20198;-69
2021/01/15 09:00:35;;;;;;;5.88;2.67;;;;;;;-2.31;56.64;93765.31;5057683;28;20075;-69
2021/01/15 09:03:03;;;;;;;6.43;3.85;;;;;;;-2.17;57.86;93757.19;5057439;28;20021;-68
2021/01/15 09:05:31;;;;;;;6.72;3.03;;;;;;;-2.09;57.46;93754.19;5065570;28;20399;-68
2021/01/15 09:08:00;;;;;;;6.05;3.53;;;;;;;-2.03;56.62;93753.25;5067701;28;20051;-69
2021/01/15 09:10:27;;;;;;;4.95;2.85;;;;;;;-2.00;56.32;93741.53;5064938;28;20484;-69
2021/01/15 09:12:54;;;;;;;4.78;2.65;;;;;;;-2.03;55.94;93742.78;5059477;28;20060;-68
2021/01/15 09:15:24;;;;;;;4.53;2.30;;;;;;;-2.15;56.01;93744.69;5071692;28;20032;-69
2021/01/15 09:17:50;;;;;;;6.63;3.03;;;;;;;-2.09;56.12;93743.75;5057494;28;20036;-70
2021/01/15 09:20:17;;;;;;;6.13;3.38;;;;;;;-2.00;56.30;93742.31;5065155;28;20514;-69
2021/01/15 09:22:43;;;;;;;6.38;2.92;;;;;;;-1.88;59.32;93734.38;5051417;28;20033;-70
2021/01/15 09:25:10;;;;;;;7.40;2.80;;;;;;;-1.68;55.68;93737.31;5065972;28;20024;-69
2021/01/15 09:27:36;;;;;;;8.38;3.33;;;;;;;-1.67;54.60;93730.25;5061724;28;20021;-70
2021/01/15 09:30:02;;;;;;;5.35;2.60;;;;;;;-1.66;54.10;93734.47;5052386;28;20036;-69
2021/01/15 09:32:28;;;;;;;5.25;3.05;;;;;;;-1.62;54.20;93717.25;5056974;28;20065;-70
2021/01/15 09:34:53;;;;;;;5.72;2.65;;;;;;;-1.67;53.86;93731.06;5061711;28;20436;-71
2021/01/15 09:37:18;;;;;;;5.60;2.72;;;;;;;-1.58;53.06;93723.59;5060009;28;20116;-70
2021/01/15 09:39:44;;;;;;;5.90;3.38;;;;;;;-1.59;53.82;93726.44;5056138;28;20023;-70
2021/01/15 09:42:12;;;;;;;5.20;2.75;;;;;;;-1.58;53.65;93723.59;5053171;28;20110;-71
2021/01/15 09:44:37;;;;;;;5.32;3.13;;;;;;;-1.52;53.08;93722.63;5067086;28;20085;-72
2021/01/15 09:47:03;;;;;;;4.75;2.53;;;;;;;-1.66;53.67;93721.38;5068354;28;20033;-72
2021/01/15 09:49:33;;;;;;;6.60;3.47;;;;;;;-1.63;54.91;93716.47;5068046;28;20523;-71
2021/01/15 09:51:59;;;;;;;7.18;3.10;;;;;;;-1.55;54.14;93733.56;5070685;28;20044;-71
2021/01/15 09:54:24;;;;;;;5.68;2.33;;;;;;;-1.55;53.57;93722.31;5064583;28;20395;-71
2021/01/15 09:56:50;;;;;;;6.30;2.83;;;;;;;-1.46;53.98;93729.50;5069039;28;20024;-70
2021/01/15 09:59:17;;;;;;;7.22;3.30;;;;;;;-1.49;52.86;93721.34;5049146;28;20024;-69
2021/01/15 10:01:45;;;;;;;7.70;2.60;;;;;;;-1.42;53.39;93719.38;5049294;28;20032;-69
2021/01/15 10:04:10;;;;;;;7.65;3.17;;;;;;;-1.37;52.46;93724.66;5048927;28;20412;-69
2021/01/15 10:06:40;;;;;;;10.88;3.63;;;;;;;-1.35;52.34;93711.34;5060807;28;20032;-71
2021/01/15 10:09:07;;;;;;;9.27;3.72;;;;;;;-1.37;51.60;93702.94;5056859;28;20029;-71
2021/01/15 10:11:36;;;;;;;4.82;2.80;;;;;;;-1.32;52.75;93708.22;5067844;28;20032;-69
2021/01/15 10:14:07;;;;;;;5.35;3.00;;;;;;;-1.24;53.04;93707.81;5065101;28;20421;-70
2021/01/15 10:16:35;;;;;;;6.88;3.30;;;;;;;-1.20;53.10;93701.09;5049859;28;20033;-69
2021/01/15 10:19:01;;;;;;;12.35;3.47;;;;;;;-1.14;52.66;93692.25;5058761;28;20495;-70
2021/01/15 10:21:28;;;;;;;4.90;2.95;;;;;;;-1.02;52.04;93697.34;5050309;28;20119;-70
2021/01/15 10:23:56;;;;;;;4.68;2.58;;;;;;;-0.96;50.76;93690.34;5058749;28;20424;-69
2021/01/15 10:26:30;;;;;;;6.18;2.63;;;;;;;-0.94;51.08;93689.06;5051474;28;20020;-70
2021/01/15 10:28:57;;;;;;;5.05;2.65;;;;;;;-0.89;52.45;93677.88;5068407;28;20028;-70
2021/01/15 10:31:23;;;;;;;4.60;2.70;;;;;;;-0.84;51.00;93691.00;5068491;28;20111;-70
2021/01/15 10:33:49;;;;;;;6.32;2.83;;;;;;;-0.82;51.10;93694.16;5069832;28;20153;-70
2021/01/15 10:36:14;;;;;;;6.90;2.42;;;;;;;-0.79;50.96;93698.09;5054922;28;20040;-71
2021/01/15 10:38:39;;;;;;;5.47;2.88;;;;;;;-0.89;51.20;93686.50;5068057;28;20071;-71
2021/01/15 10:41:05;;;;;;;10.70;3.53;;;;;;;-0.86;51.58;93693.06;5055242;28;20021;-70
2021/01/15 10:43:31;;;;;;;10.35;3.88;;;;;;;-0.77;51.75;93693.41;5063747;28;20028;-70
2021/01/15 10:45:56;;;;;;;10.80;3.13;;;;;;;-0.81;51.46;93685.28;5068336;28;20499;-71
2021/01/15 10:48:22;;;;;;;5.25;2.97;;;;;;;-0.78;49.95;93689.22;5054677;28;20403;-71
2021/01/15 10:50:47;;;;;;;6.35;2.70;;;;;;;-1.01;50.24;93702.34;5049796;28;20102;-68
2021/01/15 10:53:12;;;;;;;4.93;2.83;;;;;;;-1.07;51.16;93681.59;5049982;28;20021;-71
2021/01/15 10:55:38;;;;;;;5.63;3.15;;;;;;;-1.04;52.23;93675.88;5051046;28;20446;-72
2021/01/15 10:58:05;;;;;;;9.57;4.15;;;;;;;-0.96;51.54;93661.56;5059009;28;20028;-71
2021/01/15 11:00:31;;;;;;;10.63;3.42;;;;;;;-0.96;52.67;93667.56;5062406;28;20450;-72
2021/01/15 11:02:56;;;;;;;6.60;3.75;;;;;;;-0.84;52.69;93656.97;5047883;28;20025;-71
2021/01/15 11:05:22;;;;;;;12.25;4.78;;;;;;;-0.71;52.75;93664.44;5047801;28;20105;-72
2021/01/15 11:07:47;;;;;;;8.90;4.60;;;;;;;-0.76;51.84;93656.53;5068282;28;20021;-73
2021/01/15 11:10:13;;;;;;;13.68;3.63;;;;;;;-0.78;53.01;93656.00;5068188;28;20039;-72
2021/01/15 11:12:39;;;;;;;9.38;3.83;;;;;;;-0.69;52.52;93646.66;5049331;28;20203;-74
2021/01/15 11:15:05;;;;;;;8.52;3.78;;;;;;;-0.86;52.38;93645.97;5049654;28;20032;-73
2021/01/15 11:17:31;;;;;;;9.05;3.90;;;;;;;-0.92;52.09;93639.88;5052478;28;20052;-74
2021/01/15 11:19:56;;;;;;;7.78;4.30;;;;;;;-0.76;52.97;93656.53;5057536;28;20060;-72
2021/01/15 11:22:22;;;;;;;7.97;3.20;;;;;;;-0.80;51.03;93650.22;5056311;28;20033;-73
2021/01/15 11:24:47;;;;;;;10.95;3.78;;;;;;;-0.76;51.91;93640.03;5048183;28;20552;-73
2021/01/15 11:27:12;;;;;;;11.50;4.45;;;;;;;-0.78;51.44;93631.66;5055945;28;20020;-72
2021/01/15 11:29:38;;;;;;;20.88;4.38;;;;;;;-0.97;51.19;93633.84;5069185;28;20388;-73
2021/01/15 11:32:04;;;;;;;15.48;5.18;;;;;;;-0.99;51.73;93641.91;5069461;28;20016;-72
2021/01/15 11:34:30;;;;;;;9.40;5.47;;;;;;;-1.01;53.30;93639.53;5069101;28;20032;-71
2021/01/15 11:36:55;;;;;;;13.55;4.63;;;;;;;-0.95;52.40;93626.53;5069376;28;20020;-71
2021/01/15 11:39:21;;;;;;;12.68;4.22;;;;;;;-0.89;51.33;93626.31;5068013;28;20027;-72
2021/01/15 11:41:51;;;;;;;9.48;4.95;;;;;;;-0.90;51.54;93637.03;5069207;28;20024;-72
2021/01/15 11:44:17;;;;;;;15.63;4.72;;;;;;;-0.91;51.33;93625.00;5067753;28;20031;-72